Time;durP1;ratioP1;P1;durP2;ratioP2;P2;SDS_P1;SDS_P2;PMS_P1;PMS_P2;Temp;Humidity;BMP_temperature;BMP_pressure;BME280_temperature;BME280_humidity;BME280_pressure;Samples;Min_cycle;Max_cycle;Signal;HPM_P1;HPM_P2
2021/03/02 00:00:09;;;;;;;45.77;25.97;;;3.90;99.90;;;;;;4950542;28;20301;-72
2021/03/02 00:02:36;;;;;;;52.23;26.47;;;3.90;99.90;;;;;;4953927;29;20257;-73
2021/03/02 00:05:04;;;;;;;43.80;25.07;;;3.90;99.90;;;;;;4953373;28;20297;-71
2021/03/02 00:07:31;;;;;;;45.73;25.90;;;3.90;99.90;;;;;;4949473;28;20576;-73
2021/03/02 00:10:00;;;;;;;46.50;25.37;;;3.90;99.90;;;;;;4949703;28;20265;-74
2021/03/02 00:12:27;;;;;;;49.67;24.53;;;3.80;99.90;;;;;;4951022;28;20228;-73
2021/03/02 00:14:53;;;;;;;44.80;23.00;;;3.80;99.90;;;;;;4951457;28;20253;-73
2021/03/02 00:17:24;;;;;;;37.90;22.37;;;3.80;99.90;;;;;;4953514;28;20708;-75
2021/03/02 00:19:57;;;;;;;40.67;23.17;;;3.80;99.90;;;;;;4950973;29;20237;-73
2021/03/02 00:22:27;;;;;;;44.43;23.10;;;3.70;99.90;;;;;;4950740;28;20580;-73
2021/03/02 00:24:57;;;;;;;43.33;23.47;;;3.80;99.90;;;;;;4945960;29;20205;-72
2021/03/02 00:27:24;;;;;;;40.30;22.00;;;3.70;99.90;;;;;;4949109;28;20217;-73
2021/03/02 00:29:51;;;;;;;41.97;23.93;;;3.70;99.90;;;;;;4949969;29;20236;-74
2021/03/02 00:32:19;;;;;;;40.13;24.03;;;3.60;99.90;;;;;;4954346;28;20213;-73
2021/03/02 00:34:46;;;;;;;45.53;23.17;;;3.60;99.90;;;;;;4948001;28;20713;-73
2021/03/02 00:37:12;;;;;;;41.07;23.07;;;3.60;99.90;;;;;;4949803;28;20209;-73
2021/03/02 00:39:39;;;;;;;38.50;22.67;;;3.60;99.90;;;;;;4948966;28;20632;-74
2021/03/02 00:42:06;;;;;;;38.57;22.00;;;3.60;99.90;;;;;;4952301;28;20217;-74
2021/03/02 00:44:33;;;;;;;44.90;23.10;;;3.60;99.90;;;;;;4949842;29;20208;-75
2021/03/02 00:47:00;;;;;;;43.57;22.53;;;3.60;99.90;;;;;;4952777;29;20209;-74
2021/03/02 00:49:26;;;;;;;38.97;21.63;;;3.50;99.90;;;;;;4945486;28;20220;-73
2021/03/02 00:51:53;;;;;;;37.63;20.83;;;3.50;99.90;;;;;;4948061;28;20201;-73
2021/03/02 00:54:19;;;;;;;38.27;20.73;;;3.50;99.90;;;;;;4952641;28;20226;-75
2021/03/02 00:56:46;;;;;;;35.63;19.90;;;3.50;99.90;;;;;;4951558;28;20296;-73
2021/03/02 00:59:13;;;;;;;41.47;21.50;;;3.50;99.90;;;;;;4952494;29;20232;-74
2021/03/02 01:01:40;;;;;;;38.20;21.03;;;3.50;99.90;;;;;;4955003;28;20209;-72
2021/03/02 01:04:07;;;;;;;40.70;21.10;;;3.40;99.90;;;;;;4947726;28;20210;-73
2021/03/02 01:06:34;;;;;;;33.70;19.83;;;3.40;99.90;;;;;;4949080;29;20313;-73
2021/03/02 01:09:00;;;;;;;39.80;20.37;;;3.40;99.90;;;;;;4953212;28;20265;-74
2021/03/02 01:11:26;;;;;;;36.33;19.93;;;3.40;99.90;;;;;;4950815;28;21775;-74
2021/03/02 01:13:53;;;;;;;39.30;21.40;;;3.40;99.90;;;;;;4946803;29;20316;-73
2021/03/02 01:16:20;;;;;;;37.33;20.23;;;3.40;99.90;;;;;;4947994;29;20256;-73
2021/03/02 01:18:47;;;;;;;37.80;20.50;;;3.50;99.90;;;;;;4949557;28;20742;-74
2021/03/02 01:21:15;;;;;;;40.07;22.23;;;3.50;99.90;;;;;;4951165;28;20781;-73
2021/03/02 01:23:42;;;;;;;36.07;19.77;;;3.50;99.90;;;;;;4949568;28;20674;-74
2021/03/02 01:26:08;;;;;;;36.57;19.83;;;3.50;99.90;;;;;;4951634;29;20205;-73
2021/03/02 01:28:35;;;;;;;38.80;21.33;;;3.50;99.90;;;;;;4953848;28;20300;-72
2021/03/02 01:31:01;;;;;;;37.03;21.40;;;3.60;99.90;;;;;;4951888;28;20216;-73
2021/03/02 01:33:27;;;;;;;36.53;20.37;;;3.60;99.90;;;;;;4947361;29;20222;-73
2021/03/02 01:35:56;;;;;;;36.63;20.97;;;3.60;99.90;;;;;;4945805;29;20328;-73
2021/03/02 01:38:22;;;;;;;36.23;20.20;;;3.60;99.90;;;;;;4944215;29;20217;-74
2021/03/02 01:40:49;;;;;;;41.57;21.53;;;3.60;99.90;;;;;;4952421;29;20249;-74
2021/03/02 01:43:15;;;;;;;44.47;22.07;;;3.60;99.90;;;;;;4949382;28;20212;-74
2021/03/02 01:45:42;;;;;;;46.97;22.50;;;3.60;99.90;;;;;;4953658;28;20202;-73
2021/03/02 01:48:09;;;;;;;45.30;22.20;;;3.60;99.90;;;;;;4957074;28;20206;-73
2021/03/02 01:50:35;;;;;;;35.53;21.70;;;3.60;99.90;;;;;;4955557;28;20202;-73
2021/03/02 01:53:03;;;;;;;42.33;21.97;;;3.60;99.90;;;;;;4957054;28;20300;-74
2021/03/02 01:55:30;;;;;;;40.57;22.93;;;3.60;99.90;;;;;;4953950;28;20225;-73
2021/03/02 01:57:56;;;;;;;46.20;23.30;;;3.60;99.90;;;;;;4955263;28;20362;-73
2021/03/02 02:00:26;;;;;;;43.80;22.47;;;3.60;99.90;;;;;;4952010;28;20678;-74
2021/03/02 02:03:01;;;;;;;42.87;22.67;;;3.60;99.90;;;;;;4950739;28;20259;-71
2021/03/02 02:05:34;;;;;;;39.30;21.30;;;3.60;99.90;;;;;;4953128;28;20279;-73
2021/03/02 02:08:07;;;;;;;42.83;23.20;;;3.60;99.90;;;;;;4946912;29;20651;-72
2021/03/02 02:10:41;;;;;;;46.57;22.47;;;3.60;99.90;;;;;;4952083;28;20224;-73
2021/03/02 02:13:13;;;;;;;43.27;23.57;;;3.60;99.90;;;;;;4952179;29;20217;-72
2021/03/02 02:15:42;;;;;;;43.63;22.77;;;3.70;99.90;;;;;;4952551;28;20221;-72
2021/03/02 02:18:12;;;;;;;42.50;22.73;;;3.60;99.90;;;;;;4956762;29;20214;-71
2021/03/02 02:20:50;;;;;;;44.60;23.37;;;3.60;99.90;;;;;;4954104;28;20320;-72
2021/03/02 02:23:43;;;;;;;43.17;23.50;;;3.60;99.90;;;;;;4953133;29;20307;-72
2021/03/02 02:26:31;;;;;;;48.20;24.37;;;3.60;99.90;;;;;;4973121;28;20221;-71
2021/03/02 02:28:59;;;;;;;47.63;24.33;;;3.60;99.90;;;;;;4949805;28;20206;-71
2021/03/02 02:31:26;;;;;;;47.87;25.37;;;3.60;99.90;;;;;;4952738;29;20205;-72
2021/03/02 02:33:55;;;;;;;47.30;25.47;;;3.70;99.90;;;;;;4955823;29;20667;-72
2021/03/02 02:36:22;;;;;;;50.23;24.93;;;3.60;99.90;;;;;;4949084;28;20221;-72
2021/03/02 02:38:53;;;;;;;43.87;22.90;;;3.60;99.90;;;;;;4955127;28;20755;-72
2021/03/02 02:41:22;;;;;;;53.23;25.43;;;3.60;99.90;;;;;;4954891;28;20244;-71
2021/03/02 02:43:51;;;;;;;48.83;25.03;;;3.60;99.90;;;;;;4953568;28;20240;-71
2021/03/02 02:46:19;;;;;;;49.03;25.37;;;3.60;99.90;;;;;;4951956;28;20232;-71
2021/03/02 02:48:49;;;;;;;49.10;25.90;;;3.60;99.90;;;;;;4954692;28;20251;-72
2021/03/02 02:51:16;;;;;;;49.73;25.10;;;3.60;99.90;;;;;;4951560;28;20624;-71
2021/03/02 02:53:43;;;;;;;57.13;25.60;;;3.60;99.90;;;;;;4950644;28;20206;-72
2021/03/02 02:56:12;;;;;;;56.80;25.07;;;3.60;99.90;;;;;;4954118;28;20220;-72
2021/03/02 02:58:43;;;;;;;57.33;25.83;;;3.60;99.90;;;;;;4949428;29;20253;-71
2021/03/02 03:01:12;;;;;;;53.80;25.67;;;3.60;99.90;;;;;;4951197;29;20236;-72
2021/03/02 03:03:43;;;;;;;52.43;25.73;;;3.60;99.90;;;;;;4951136;28;20213;-72
2021/03/02 03:06:13;;;;;;;53.70;26.80;;;3.60;99.90;;;;;;4954370;28;20213;-72
2021/03/02 03:08:48;;;;;;;50.27;26.43;;;3.60;99.90;;;;;;4956634;28;20213;-72
2021/03/02 03:11:17;;;;;;;50.67;24.70;;;3.60;99.90;;;;;;4955528;28;20209;-73
2021/03/02 03:13:47;;;;;;;49.93;25.07;;;3.60;99.90;;;;;;4951145;28;20229;-73
2021/03/02 03:16:15;;;;;;;58.17;26.63;;;3.60;99.90;;;;;;4949326;29;20248;-72
2021/03/02 03:18:46;;;;;;;51.73;25.00;;;3.60;99.90;;;;;;4949908;29;20563;-71
2021/03/02 03:21:13;;;;;;;58.60;26.33;;;3.70;99.90;;;;;;4954856;29;20244;-72
2021/03/02 03:23:41;;;;;;;56.17;25.70;;;3.70;99.90;;;;;;4949638;28;20213;-72
2021/03/02 03:26:09;;;;;;;54.37;27.47;;;3.80;99.90;;;;;;4952972;28;21350;-73
2021/03/02 03:28:36;;;;;;;54.20;26.83;;;3.70;99.90;;;;;;4948505;29;20221;-72
2021/03/02 03:31:04;;;;;;;52.93;27.80;;;3.70;99.90;;;;;;4945983;29;20324;-72
2021/03/02 03:33:33;;;;;;;58.57;28.40;;;3.70;99.90;;;;;;4949208;29;20213;-70
2021/03/02 03:36:00;;;;;;;51.93;27.17;;;3.70;99.90;;;;;;4955189;28;20212;-71
2021/03/02 03:38:26;;;;;;;54.73;26.83;;;3.80;99.90;;;;;;4950053;28;20775;-71
2021/03/02 03:40:53;;;;;;;55.43;27.80;;;3.80;99.90;;;;;;4950560;28;20665;-71
2021/03/02 03:43:19;;;;;;;55.90;27.60;;;3.80;99.90;;;;;;4953040;28;20647;-71
2021/03/02 03:45:46;;;;;;;57.07;28.50;;;3.80;99.90;;;;;;4946984;28;20209;-72
2021/03/02 03:48:12;;;;;;;55.57;27.43;;;3.80;99.90;;;;;;4947919;28;20245;-71
2021/03/02 03:50:40;;;;;;;57.40;27.77;;;3.80;99.90;;;;;;4948187;28;20210;-71
2021/03/02 03:53:08;;;;;;;59.30;28.03;;;3.80;99.90;;;;;;4950263;28;20298;-72
2021/03/02 03:55:39;;;;;;;51.43;27.00;;;3.80;99.90;;;;;;4953297;28;20252;-72
2021/03/02 03:58:06;;;;;;;56.50;28.60;;;3.80;99.90;;;;;;4952976;28;20264;-70
2021/03/02 04:00:33;;;;;;;55.37;28.80;;;3.80;99.90;;;;;;4951871;29;20322;-72
2021/03/02 04:03:01;;;;;;;55.93;27.97;;;3.80;99.90;;;;;;4952250;28;20647;-71
2021/03/02 04:05:29;;;;;;;58.00;28.50;;;3.80;99.90;;;;;;4948094;28;20733;-72
2021/03/02 04:07:58;;;;;;;63.30;28.80;;;3.80;99.90;;;;;;4953954;28;20213;-71
2021/03/02 04:10:25;;;;;;;51.00;26.90;;;3.80;99.90;;;;;;4950257;28;20209;-72
2021/03/02 04:12:51;;;;;;;53.00;28.87;;;3.90;99.90;;;;;;4951031;29;20240;-71
2021/03/02 04:15:18;;;;;;;53.97;28.73;;;3.80;99.90;;;;;;4947887;29;20233;-71
2021/03/02 04:17:50;;;;;;;55.20;28.60;;;3.90;99.90;;;;;;4951341;29;20584;-72
2021/03/02 04:20:17;;;;;;;55.27;29.33;;;3.90;99.90;;;;;;4946351;29;20240;-71
2021/03/02 04:22:43;;;;;;;54.97;28.90;;;3.90;99.90;;;;;;4951359;29;20229;-72
2021/03/02 04:25:11;;;;;;;59.97;30.30;;;3.90;99.90;;;;;;4950899;28;20293;-72
2021/03/02 04:27:38;;;;;;;56.03;28.73;;;3.90;99.90;;;;;;4953647;28;20293;-72
2021/03/02 04:30:06;;;;;;;56.47;28.83;;;3.90;99.90;;;;;;4948384;28;20205;-71
2021/03/02 04:32:33;;;;;;;55.53;28.63;;;3.90;99.90;;;;;;4950783;28;20324;-71
2021/03/02 04:34:59;;;;;;;59.33;30.47;;;4.00;99.90;;;;;;4947553;29;20316;-71
2021/03/02 04:37:26;;;;;;;55.00;30.63;;;4.00;99.90;;;;;;4950040;28;20201;-71
2021/03/02 04:39:52;;;;;;;55.87;29.13;;;4.00;99.90;;;;;;4950989;28;20249;-71
2021/03/02 04:42:19;;;;;;;53.63;29.97;;;4.00;99.90;;;;;;4954040;28;20228;-71
2021/03/02 04:44:46;;;;;;;52.87;28.63;;;4.00;99.90;;;;;;4949122;28;20240;-72
2021/03/02 04:47:12;;;;;;;52.83;27.43;;;4.00;99.90;;;;;;4950280;29;20205;-71
2021/03/02 04:49:39;;;;;;;54.73;29.00;;;4.00;99.90;;;;;;4949131;28;20300;-71
2021/03/02 04:52:05;;;;;;;58.60;30.00;;;4.00;99.90;;;;;;4948866;28;20214;-72
2021/03/02 04:54:32;;;;;;;52.20;27.93;;;4.00;99.90;;;;;;4946963;28;20232;-72
2021/03/02 04:56:58;;;;;;;54.80;28.43;;;4.00;99.90;;;;;;4945912;29;20212;-72
2021/03/02 04:59:26;;;;;;;60.57;30.00;;;3.90;99.90;;;;;;4946445;28;20220;-72
2021/03/02 05:01:52;;;;;;;62.87;29.03;;;4.00;99.90;;;;;;4949467;28;20342;-72
2021/03/02 05:04:19;;;;;;;57.13;28.13;;;4.10;99.90;;;;;;4949836;28;20251;-71
2021/03/02 05:06:45;;;;;;;53.43;28.60;;;4.10;99.90;;;;;;4950355;28;20210;-72
2021/03/02 05:09:12;;;;;;;53.47;28.87;;;4.00;99.90;;;;;;4954920;28;20263;-72
2021/03/02 05:11:38;;;;;;;55.40;29.17;;;4.50;99.90;;;;;;4948812;28;20275;-72
2021/03/02 05:14:05;;;;;;;55.17;27.27;;;4.00;99.90;;;;;;4942567;28;20324;-72
2021/03/02 05:16:32;;;;;;;57.60;28.67;;;4.00;99.90;;;;;;4949487;29;20218;-72
2021/03/02 05:18:59;;;;;;;49.80;26.00;;;4.00;99.90;;;;;;4946214;28;20202;-73
2021/03/02 05:21:25;;;;;;;54.93;29.73;;;4.00;99.90;;;;;;4948067;28;20737;-72
2021/03/02 05:23:52;;;;;;;48.80;26.53;;;4.00;99.90;;;;;;4947400;28;20214;-73
2021/03/02 05:26:21;;;;;;;52.53;27.70;;;4.00;99.90;;;;;;4952125;28;20666;-71
2021/03/02 05:28:48;;;;;;;56.77;27.80;;;4.00;99.90;;;;;;4953131;28;20231;-73
2021/03/02 05:31:14;;;;;;;53.77;27.60;;;4.00;99.90;;;;;;4951519;28;20216;-71
2021/03/02 05:33:42;;;;;;;50.50;26.50;;;4.00;99.90;;;;;;4946903;28;20213;-73
2021/03/02 05:36:08;;;;;;;50.23;27.13;;;4.00;99.90;;;;;;4949163;29;20229;-73
2021/03/02 05:38:35;;;;;;;56.80;28.13;;;4.00;99.90;;;;;;4944759;28;20560;-72
2021/03/02 05:41:02;;;;;;;55.33;29.43;;;4.00;99.90;;;;;;4947823;29;20726;-71
2021/03/02 05:43:29;;;;;;;52.70;27.37;;;4.00;99.90;;;;;;4955640;28;20221;-76
2021/03/02 05:45:56;;;;;;;52.93;28.60;;;4.00;99.90;;;;;;4947761;28;20220;-76
2021/03/02 05:48:26;;;;;;;49.40;27.03;;;4.00;99.90;;;;;;4954535;28;20690;-74
2021/03/02 05:50:54;;;;;;;53.63;28.60;;;4.00;99.90;;;;;;4956927;28;20233;-76
2021/03/02 05:53:21;;;;;;;60.33;28.70;;;4.00;99.90;;;;;;4965459;28;20205;-75
2021/03/02 05:55:48;;;;;;;52.87;27.20;;;4.00;99.90;;;;;;4958390;28;20240;-76
2021/03/02 05:58:15;;;;;;;53.93;27.30;;;4.00;99.90;;;;;;4958061;28;20237;-76
2021/03/02 06:00:42;;;;;;;54.60;27.67;;;4.00;99.90;;;;;;4958642;28;20237;-75
2021/03/02 06:03:09;;;;;;;56.03;29.00;;;4.00;99.90;;;;;;4960541;28;20617;-75
2021/03/02 06:05:36;;;;;;;47.97;26.67;;;4.00;99.90;;;;;;4961280;28;20210;-75
2021/03/02 06:08:07;;;;;;;52.67;28.33;;;4.00;99.90;;;;;;4962331;28;20246;-74
2021/03/02 06:10:34;;;;;;;51.00;27.07;;;4.10;99.90;;;;;;4960701;28;20208;-74
2021/03/02 06:13:01;;;;;;;53.40;28.63;;;4.10;99.90;;;;;;4959790;28;20229;-75
2021/03/02 06:15:29;;;;;;;53.93;27.50;;;4.10;99.90;;;;;;4954584;28;20245;-75
2021/03/02 06:18:09;;;;;;;60.33;29.37;;;4.10;99.90;;;;;;4952941;29;20670;-76
2021/03/02 06:20:36;;;;;;;51.37;27.97;;;4.10;99.90;;;;;;4946682;28;20722;-75
2021/03/02 06:23:22;;;;;;;50.87;26.20;;;4.10;99.90;;;;;;4949443;28;20202;-75
2021/03/02 06:25:50;;;;;;;58.27;27.90;;;4.10;99.90;;;;;;4954474;29;20276;-74
2021/03/02 06:28:40;;;;;;;53.83;28.00;;;4.10;99.90;;;;;;4949582;28;20216;-75
2021/03/02 06:31:07;;;;;;;48.53;26.47;;;4.10;99.90;;;;;;4952981;28;20205;-75
2021/03/02 06:33:34;;;;;;;54.13;28.40;;;4.10;99.90;;;;;;4950683;28;20293;-74
2021/03/02 06:36:00;;;;;;;52.97;25.77;;;4.10;99.90;;;;;;4952347;28;20256;-76
2021/03/02 06:38:31;;;;;;;49.57;25.80;;;4.10;99.90;;;;;;4955877;28;20217;-74
2021/03/02 06:41:00;;;;;;;51.07;27.80;;;4.10;99.90;;;;;;4952198;29;20284;-75
2021/03/02 06:43:32;;;;;;;48.73;26.33;;;4.20;99.90;;;;;;4953661;28;20304;-76
2021/03/02 06:45:59;;;;;;;50.73;27.30;;;4.20;99.90;;;;;;4954483;28;20273;-77
2021/03/02 06:48:25;;;;;;;55.87;27.37;;;4.20;99.90;;;;;;4955827;28;20687;-75
2021/03/02 06:50:52;;;;;;;50.60;27.10;;;4.20;99.90;;;;;;4951767;28;20288;-76
2021/03/02 06:53:19;;;;;;;49.20;26.10;;;4.20;99.90;;;;;;4954601;28;20550;-74
2021/03/02 06:55:49;;;;;;;50.90;25.90;;;4.30;99.90;;;;;;4953314;28;20575;-75
2021/03/02 06:58:20;;;;;;;54.63;27.10;;;4.30;99.90;;;;;;4953353;28;20265;-77
2021/03/02 07:00:49;;;;;;;57.03;28.40;;;4.20;99.90;;;;;;4953971;28;20210;-80
2021/03/02 07:03:24;;;;;;;55.57;28.37;;;4.10;99.90;;;;;;4943143;29;20210;-75
2021/03/02 07:05:51;;;;;;;58.67;28.63;;;4.10;99.90;;;;;;4953890;28;20236;-75
2021/03/02 07:08:18;;;;;;;56.47;28.40;;;4.20;99.90;;;;;;4949007;29;20220;-74
2021/03/02 07:10:50;;;;;;;60.20;27.83;;;4.20;99.90;;;;;;4951913;28;20217;-73
2021/03/02 07:13:17;;;;;;;53.83;27.83;;;4.30;99.90;;;;;;4945606;28;20206;-75
2021/03/02 07:15:49;;;;;;;56.07;28.00;;;4.10;99.90;;;;;;4947423;28;20228;-74
2021/03/02 07:18:19;;;;;;;61.57;29.40;;;4.20;99.90;;;;;;4952113;28;20604;-75
2021/03/02 07:20:53;;;;;;;56.47;29.03;;;4.20;99.90;;;;;;4955647;28;20248;-73
2021/03/02 07:23:21;;;;;;;53.30;27.60;;;4.20;99.90;;;;;;4950818;28;20220;-73
2021/03/02 07:25:51;;;;;;;56.23;27.73;;;4.20;99.90;;;;;;4959786;28;20213;-74
2021/03/02 07:28:21;;;;;;;52.23;27.53;;;4.20;99.90;;;;;;4952977;28;20202;-70
2021/03/02 07:30:52;;;;;;;55.63;27.97;;;4.30;99.90;;;;;;4953186;28;20320;-70
2021/03/02 07:33:19;;;;;;;60.27;27.57;;;4.30;99.90;;;;;;4950535;29;20265;-73
2021/03/02 07:35:48;;;;;;;56.27;26.00;;;4.30;99.90;;;;;;4951769;28;20232;-71
2021/03/02 07:38:19;;;;;;;55.10;26.10;;;4.40;99.90;;;;;;4950311;29;20209;-72
2021/03/02 07:40:49;;;;;;;55.67;27.40;;;4.40;99.90;;;;;;4951069;28;20560;-72
2021/03/02 07:43:30;;;;;;;54.80;27.53;;;4.40;99.90;;;;;;4946129;29;20212;-73
2021/03/02 07:45:57;;;;;;;57.47;29.00;;;4.40;99.90;;;;;;4948363;29;20232;-72
2021/03/02 07:48:28;;;;;;;54.67;27.13;;;4.50;99.90;;;;;;4948085;28;20296;-75
2021/03/02 07:51:21;;;;;;;57.70;29.43;;;4.50;99.90;;;;;;4952676;28;20574;-75
2021/03/02 07:53:48;;;;;;;52.73;26.47;;;4.50;99.90;;;;;;4945604;29;20248;-73
2021/03/02 07:56:25;;;;;;;57.07;26.83;;;4.60;99.90;;;;;;4948372;29;20280;-71
2021/03/02 07:59:19;;;;;;;56.27;27.87;;;4.60;99.90;;;;;;4953045;28;20209;-70
2021/03/02 08:02:18;;;;;;;64.77;31.20;;;4.70;99.90;;;;;;4946065;29;20268;-71
2021/03/02 08:04:46;;;;;;;59.00;29.40;;;4.70;99.90;;;;;;4952781;28;20309;-72
2021/03/02 08:07:24;;;;;;;62.17;29.10;;;4.80;99.90;;;;;;4952851;28;20769;-72
2021/03/02 08:09:52;;;;;;;57.40;29.57;;;4.80;99.90;;;;;;4955356;29;20288;-71
2021/03/02 08:12:31;;;;;;;58.30;30.70;;;4.90;99.90;;;;;;4955489;28;20302;-72
2021/03/02 08:14:59;;;;;;;58.87;28.87;;;4.90;99.90;;;;;;4943742;29;20276;-71
2021/03/02 08:17:28;;;;;;;59.37;30.30;;;4.90;99.90;;;;;;4951993;28;20244;-73
2021/03/02 08:20:07;;;;;;;56.53;28.87;;;4.90;99.90;;;;;;4947319;28;20337;-72
2021/03/02 08:22:50;;;;;;;53.33;27.47;;;5.00;99.90;;;;;;4942067;28;20205;-72
2021/03/02 08:25:31;;;;;;;55.77;29.30;;;5.00;99.90;;;;;;4949673;28;20229;-71
2021/03/02 08:28:04;;;;;;;52.23;27.33;;;5.10;99.90;;;;;;4950765;28;20213;-71
2021/03/02 08:30:34;;;;;;;54.60;28.77;;;5.10;99.90;;;;;;4950388;28;20643;-72
2021/03/02 08:33:03;;;;;;;59.73;28.37;;;5.10;99.90;;;;;;4955939;28;20679;-71
2021/03/02 08:35:33;;;;;;;58.63;28.90;;;5.10;99.90;;;;;;4945466;29;20233;-71
2021/03/02 08:38:05;;;;;;;62.67;27.70;;;5.10;99.90;;;;;;4940217;28;20213;-71
2021/03/02 08:40:44;;;;;;;55.97;27.47;;;5.10;99.90;;;;;;4946348;28;20607;-72
2021/03/02 08:43:16;;;;;;;53.17;27.57;;;5.20;99.90;;;;;;4937194;29;20301;-71
2021/03/02 08:45:44;;;;;;;57.83;27.27;;;5.20;99.90;;;;;;4968657;28;20217;-72
2021/03/02 08:48:20;;;;;;;49.27;25.63;;;5.20;99.90;;;;;;4940518;29;20205;-76
2021/03/02 08:50:48;;;;;;;47.70;23.67;;;5.20;99.90;;;;;;4943471;28;20565;-73
2021/03/02 08:53:34;;;;;;;46.20;25.13;;;5.20;99.90;;;;;;4949646;28;20615;-73
2021/03/02 08:56:03;;;;;;;50.80;25.87;;;5.20;99.90;;;;;;4953700;28;20213;-74
2021/03/02 08:58:35;;;;;;;45.67;25.00;;;5.30;99.90;;;;;;4953910;28;20322;-73
2021/03/02 09:01:05;;;;;;;51.57;24.37;;;5.30;99.90;;;;;;4944347;28;20211;-71
2021/03/02 09:03:32;;;;;;;48.23;24.67;;;5.40;99.90;;;;;;4951423;28;20294;-72
2021/03/02 09:06:12;;;;;;;47.73;25.83;;;5.50;99.90;;;;;;4952209;28;20201;-73
2021/03/02 09:08:51;;;;;;;50.23;24.87;;;5.50;99.90;;;;;;4954775;28;20205;-72
2021/03/02 09:11:19;;;;;;;46.77;24.37;;;5.70;99.90;;;;;;4947396;28;20284;-72
2021/03/02 09:13:46;;;;;;;54.83;26.80;;;5.80;99.90;;;;;;4950550;28;20691;-73
2021/03/02 09:16:28;;;;;;;57.90;26.63;;;5.90;99.90;;;;;;4951758;28;20323;-72
2021/03/02 09:19:07;;;;;;;48.93;25.27;;;6.10;99.90;;;;;;4951903;28;20236;-79
2021/03/02 09:21:35;;;;;;;46.67;26.00;;;6.10;99.90;;;;;;4959234;28;20668;-79
2021/03/02 09:24:02;;;;;;;49.57;25.37;;;6.10;99.90;;;;;;4949981;28;20728;-78
2021/03/02 09:26:30;;;;;;;51.77;26.17;;;6.30;99.90;;;;;;4950979;28;20227;-78
2021/03/02 09:29:00;;;;;;;47.47;25.90;;;6.40;99.90;;;;;;4947648;28;20237;-79
2021/03/02 09:31:29;;;;;;;47.90;24.60;;;6.80;99.90;;;;;;4947441;28;20205;-69
2021/03/02 09:33:56;;;;;;;47.20;25.27;;;6.80;99.90;;;;;;4941547;28;20293;-76
2021/03/02 09:36:25;;;;;;;44.77;24.57;;;6.80;99.90;;;;;;4945046;28;20782;-70
2021/03/02 09:38:52;;;;;;;49.27;25.03;;;6.90;99.90;;;;;;4941940;28;20321;-74
2021/03/02 09:41:34;;;;;;;48.93;24.80;;;6.90;99.90;;;;;;4942271;28;20220;-74
2021/03/02 09:44:26;;;;;;;48.20;24.80;;;7.00;99.90;;;;;;4967277;28;20288;-74
2021/03/02 09:46:55;;;;;;;47.47;25.07;;;7.10;99.90;;;;;;4946371;28;20205;-73
2021/03/02 09:49:36;;;;;;;51.50;25.63;;;7.10;99.90;;;;;;4948036;28;20217;-74
2021/03/02 09:52:03;;;;;;;44.97;24.43;;;7.30;99.90;;;;;;4956787;28;20410;-73
2021/03/02 09:54:29;;;;;;;50.97;25.47;;;7.50;99.90;;;;;;4949689;28;20376;-75
2021/03/02 09:56:58;;;;;;;46.73;25.37;;;7.70;99.90;;;;;;4953517;28;20228;-73
2021/03/02 09:59:26;;;;;;;41.07;23.70;;;8.40;99.90;;;;;;4948726;28;20293;-74
2021/03/02 10:01:53;;;;;;;45.47;24.23;;;9.10;99.90;;;;;;4947188;28;20226;-74
2021/03/02 10:04:20;;;;;;;46.73;25.00;;;9.70;99.90;;;;;;4945907;28;20567;-74
2021/03/02 10:06:48;;;;;;;43.33;24.40;;;11.50;99.90;;;;;;4950390;29;20213;-74
2021/03/02 10:09:22;;;;;;;38.90;23.87;;;14.00;99.90;;;;;;4951627;28;20206;-74
2021/03/02 10:12:07;;;;;;;45.27;24.40;;;15.80;90.40;;;;;;4953712;28;20287;-75
2021/03/02 10:14:38;;;;;;;38.80;23.53;;;15.80;77.40;;;;;;4948137;28;20233;-73
2021/03/02 10:17:05;;;;;;;42.70;25.47;;;14.90;71.50;;;;;;4952096;28;20245;-75
2021/03/02 10:19:31;;;;;;;41.50;25.03;;;14.00;75.70;;;;;;4950396;28;20246;-74
2021/03/02 10:21:59;;;;;;;42.30;24.93;;;13.30;89.70;;;;;;4951115;29;20202;-74
2021/03/02 10:24:27;;;;;;;38.73;24.30;;;13.40;96.00;;;;;;4947362;28;20264;-74
2021/03/02 10:26:55;;;;;;;38.80;23.67;;;14.10;91.40;;;;;;4950399;28;20209;-74
2021/03/02 10:29:22;;;;;;;42.70;25.37;;;15.10;81.90;;;;;;4948173;29;20212;-75
2021/03/02 10:31:51;;;;;;;39.03;25.17;;;16.10;79.60;;;;;;4949534;29;20226;-75
2021/03/02 10:34:19;;;;;;;43.57;28.27;;;17.70;68.10;;;;;;4950632;29;20296;-75
2021/03/02 10:36:53;;;;;;;44.13;26.63;;;19.30;59.80;;;;;;4947116;28;20301;-74
2021/03/02 10:39:19;;;;;;;39.47;25.37;;;20.30;55.00;;;;;;4953778;28;20252;-75
2021/03/02 10:41:47;;;;;;;40.77;25.17;;;21.00;53.60;;;;;;4950848;28;20198;-73
2021/03/02 10:44:15;;;;;;;37.08;25.02;;;21.70;51.00;;;;;;4955022;28;20289;-72
2021/03/02 10:46:45;;;;;;;37.70;24.15;;;22.80;47.50;;;;;;4951320;29;20629;-74
2021/03/02 10:49:13;;;;;;;38.67;25.50;;;24.40;45.90;;;;;;4952755;28;20679;-71
2021/03/02 10:51:40;;;;;;;38.78;26.23;;;25.60;43.00;;;;;;4952734;28;20551;-74
2021/03/02 10:54:06;;;;;;;35.17;25.42;;;27.10;40.70;;;;;;4952604;28;20261;-73
2021/03/02 10:56:33;;;;;;;35.50;24.65;;;28.40;37.60;;;;;;4953917;28;20773;-74
2021/03/02 10:59:01;;;;;;;35.70;25.77;;;28.80;36.70;;;;;;4950908;29;20216;-74
2021/03/02 11:01:28;;;;;;;37.42;25.63;;;28.20;35.20;;;;;;4953245;29;20578;-73
2021/03/02 11:03:54;;;;;;;34.97;26.48;;;27.50;36.80;;;;;;4948343;28;20292;-74
2021/03/02 11:06:24;;;;;;;38.50;26.73;;;27.70;36.40;;;;;;4954563;28;20239;-73
2021/03/02 11:08:51;;;;;;;32.10;25.48;;;28.50;36.10;;;;;;4950499;28;20213;-72
2021/03/02 11:11:20;;;;;;;35.50;26.02;;;28.80;34.40;;;;;;4951000;28;20649;-71
2021/03/02 11:13:48;;;;;;;35.05;25.30;;;28.60;35.70;;;;;;4951066;28;20233;-72
2021/03/02 11:16:17;;;;;;;33.70;25.85;;;28.60;35.00;;;;;;4953122;28;20236;-73
2021/03/02 11:18:44;;;;;;;34.03;25.08;;;29.30;34.60;;;;;;4949760;28;20221;-75
2021/03/02 11:21:12;;;;;;;32.53;25.08;;;30.40;33.40;;;;;;4954467;28;20701;-73
2021/03/02 11:23:40;;;;;;;34.67;24.70;;;31.80;32.30;;;;;;4952347;28;20212;-72
2021/03/02 11:26:06;;;;;;;32.55;24.10;;;33.40;30.20;;;;;;4953812;28;20289;-74
2021/03/02 11:28:34;;;;;;;27.77;22.80;;;34.00;29.50;;;;;;4955881;28;20231;-73
2021/03/02 11:31:00;;;;;;;27.40;22.52;;;34.20;28.80;;;;;;4949846;28;20613;-73
2021/03/02 11:33:29;;;;;;;30.90;23.85;;;34.60;28.40;;;;;;4949729;28;20221;-77
2021/03/02 11:35:56;;;;;;;30.50;24.95;;;35.10;28.00;;;;;;4950769;28;20229;-74
2021/03/02 11:38:22;;;;;;;34.38;24.15;;;35.30;27.80;;;;;;4954081;28;20214;-74
2021/03/02 11:40:50;;;;;;;32.70;24.95;;;35.30;27.20;;;;;;4950250;28;20292;-75
2021/03/02 11:43:19;;;;;;;28.75;23.35;;;35.70;27.20;;;;;;4951061;28;20220;-75
2021/03/02 11:45:46;;;;;;;28.30;22.73;;;35.80;27.10;;;;;;4950646;28;20207;-74
2021/03/02 11:48:14;;;;;;;28.67;23.63;;;36.10;26.80;;;;;;4948433;29;20217;-77
2021/03/02 11:50:40;;;;;;;32.63;25.40;;;36.30;26.70;;;;;;4953361;28;20219;-77
2021/03/02 11:53:06;;;;;;;29.88;24.08;;;36.10;26.70;;;;;;4955068;28;20284;-76
2021/03/02 11:55:34;;;;;;;29.70;24.10;;;36.30;27.00;;;;;;4953208;28;20324;-75
2021/03/02 11:58:05;;;;;;;30.27;23.35;;;36.80;26.50;;;;;;4955223;28;20229;-76
2021/03/02 12:00:31;;;;;;;28.40;22.63;;;37.50;26.00;;;;;;4955625;28;20343;-75
2021/03/02 12:02:58;;;;;;;29.27;23.83;;;38.00;25.60;;;;;;4949341;28;20209;-75
2021/03/02 12:05:24;;;;;;;27.70;23.73;;;38.50;25.20;;;;;;4954641;28;20202;-74
2021/03/02 12:07:51;;;;;;;25.75;22.70;;;38.80;25.00;;;;;;4954948;28;20299;-76
2021/03/02 12:10:19;;;;;;;28.45;23.27;;;39.30;24.70;;;;;;4956614;28;20292;-76
2021/03/02 12:12:46;;;;;;;29.45;23.83;;;39.30;24.50;;;;;;4953215;28;20287;-76
2021/03/02 12:15:16;;;;;;;26.33;22.70;;;38.80;24.60;;;;;;4956499;28;20315;-76
2021/03/02 12:17:42;;;;;;;29.77;23.50;;;38.90;24.80;;;;;;4950008;29;20209;-74
2021/03/02 12:20:10;;;;;;;27.70;22.70;;;39.00;24.90;;;;;;4950715;28;20264;-75
2021/03/02 12:22:40;;;;;;;27.17;23.42;;;39.20;24.50;;;;;;4951591;29;20269;-74
2021/03/02 12:25:08;;;;;;;29.08;21.92;;;39.20;24.50;;;;;;4951092;28;20654;-75
2021/03/02 12:27:34;;;;;;;26.65;22.20;;;39.20;24.50;;;;;;4948976;28;20213;-75
2021/03/02 12:30:01;;;;;;;27.50;22.05;;;39.20;24.40;;;;;;4943906;29;20370;-78
2021/03/02 12:32:29;;;;;;;25.80;22.70;;;39.10;24.50;;;;;;4952810;28;20260;-76
2021/03/02 12:34:55;;;;;;;29.90;23.38;;;38.80;24.40;;;;;;4951718;28;20222;-77
2021/03/02 12:37:21;;;;;;;25.10;21.48;;;38.30;24.70;;;;;;4955712;28;20217;-77
2021/03/02 12:39:48;;;;;;;29.23;22.60;;;37.90;24.90;;;;;;4955688;28;20293;-75
2021/03/02 12:42:16;;;;;;;26.98;20.52;;;38.00;25.10;;;;;;4947888;28;20297;-76
2021/03/02 12:44:42;;;;;;;26.75;22.08;;;38.10;24.90;;;;;;4948171;29;20214;-73